BVI62FG LIRQ-LERS
Flight info
| Callsign | BVI62FG |
|---|---|
| Flight time | 1h 25m |
| Altitude | 35000 |
| Route | MAREL DCT ELB DCT BTA DCT AJO DCT NESUL DCT ATGUS/N0443F340 DCT SADEM DCT BCN |
| Aircraft | A319/M-SDE3FGHIRWY/LB1 |
Departure
| Time | 2026-05-01 14:01 |
|---|---|
| Airport | Florence Airport, Peretola (LIRQ) |
Arrival
| Time | 2026-05-01 15:27 |
|---|---|
| Airport | Reus Airport (LERS) |
| Time | Latitude | Longitude | Altitude | Speed | Heading |
|---|---|---|---|---|---|
| 2026-05-01 13:37 | 43.80381 | 11.20036 | 132 ft | 0 kts | 267° |
| 2026-05-01 13:58 | 43.80472 | 11.19687 | 118 ft | 0 kts | 48° |
| 2026-05-01 14:00 | 43.80474 | 11.19689 | 123 ft | 1 kts | 48° |
| 2026-05-01 14:00 | 43.80490 | 11.19715 | 121 ft | 14 kts | 49° |
| 2026-05-01 14:00 | 43.80745 | 11.20103 | 134 ft | 93 kts | 47° |
| 2026-05-01 14:00 | 43.81353 | 11.20987 | 150 ft | 154 kts | 45° |
| 2026-05-01 14:01 | 43.82140 | 11.22122 | 603 ft | 166 kts | 42° |
| 2026-05-01 14:01 | 43.83088 | 11.22987 | 1356 ft | 166 kts | 12° |
| 2026-05-01 14:01 | 43.84210 | 11.22676 | 2170 ft | 167 kts | 330° |
| 2026-05-01 14:01 | 43.84923 | 11.21509 | 2951 ft | 156 kts | 297° |
| 2026-05-01 14:02 | 43.84996 | 11.20009 | 3484 ft | 161 kts | 255° |
| 2026-05-01 14:02 | 43.84502 | 11.18612 | 3975 ft | 161 kts | 242° |
| 2026-05-01 14:02 | 43.83957 | 11.17265 | 4455 ft | 160 kts | 241° |
| 2026-05-01 14:02 | 43.83406 | 11.15900 | 4885 ft | 163 kts | 242° |
| 2026-05-01 14:03 | 43.82851 | 11.14523 | 5354 ft | 164 kts | 241° |
| 2026-05-01 14:03 | 43.82297 | 11.13140 | 5797 ft | 165 kts | 242° |
| 2026-05-01 14:03 | 43.81632 | 11.11808 | 6096 ft | 179 kts | 231° |
| 2026-05-01 14:03 | 43.80795 | 11.10399 | 6329 ft | 200 kts | 230° |
| 2026-05-01 14:04 | 43.79850 | 11.08842 | 6556 ft | 223 kts | 230° |
| 2026-05-01 14:04 | 43.78799 | 11.07119 | 6836 ft | 243 kts | 230° |
| 2026-05-01 14:04 | 43.77689 | 11.05298 | 7370 ft | 251 kts | 230° |
| 2026-05-01 14:04 | 43.76935 | 11.04069 | 7851 ft | 253 kts | 229° |
| 2026-05-01 14:05 | 43.75410 | 11.01572 | 8856 ft | 256 kts | 229° |
| 2026-05-01 14:05 | 43.74253 | 10.99676 | 9507 ft | 261 kts | 230° |
| 2026-05-01 14:05 | 43.73072 | 10.97741 | 10179 ft | 265 kts | 230° |
| 2026-05-01 14:05 | 43.71891 | 10.95803 | 10821 ft | 269 kts | 231° |
| 2026-05-01 14:06 | 43.70675 | 10.93804 | 11444 ft | 274 kts | 232° |
| 2026-05-01 14:06 | 43.69435 | 10.91768 | 12090 ft | 278 kts | 232° |
| 2026-05-01 14:06 | 43.68180 | 10.89704 | 12720 ft | 283 kts | 232° |
| 2026-05-01 14:06 | 43.66904 | 10.87609 | 13345 ft | 287 kts | 232° |
| 2026-05-01 14:07 | 43.65610 | 10.85490 | 13968 ft | 290 kts | 232° |
| 2026-05-01 14:07 | 43.64280 | 10.83371 | 14555 ft | 295 kts | 226° |
| 2026-05-01 14:07 | 43.62666 | 10.81592 | 15114 ft | 300 kts | 211° |
| 2026-05-01 14:08 | 43.58532 | 10.79346 | 15516 ft | 342 kts | 196° |
| 2026-05-01 14:08 | 43.56207 | 10.78260 | 15647 ft | 364 kts | 197° |
| 2026-05-01 14:08 | 43.53743 | 10.77100 | 15777 ft | 384 kts | 197° |
| 2026-05-01 14:08 | 43.51199 | 10.75893 | 16135 ft | 395 kts | 197° |
| 2026-05-01 14:09 | 43.48582 | 10.74645 | 16691 ft | 400 kts | 197° |
| 2026-05-01 14:09 | 43.45937 | 10.73383 | 17268 ft | 404 kts | 197° |
| 2026-05-01 14:09 | 43.43261 | 10.72119 | 17825 ft | 408 kts | 197° |
| 2026-05-01 14:09 | 43.40553 | 10.70856 | 18379 ft | 412 kts | 197° |
| 2026-05-01 14:10 | 43.37820 | 10.69593 | 18905 ft | 416 kts | 197° |
| 2026-05-01 14:10 | 43.35056 | 10.68321 | 19432 ft | 420 kts | 197° |
| 2026-05-01 14:10 | 43.32307 | 10.67052 | 19974 ft | 423 kts | 197° |
| 2026-05-01 14:10 | 43.29504 | 10.65754 | 20501 ft | 427 kts | 197° |
| 2026-05-01 14:11 | 43.26680 | 10.64441 | 21021 ft | 430 kts | 198° |
| 2026-05-01 14:11 | 43.20972 | 10.61769 | 22008 ft | 436 kts | 198° |
| 2026-05-01 14:11 | 43.18093 | 10.60422 | 22478 ft | 438 kts | 198° |
| 2026-05-01 14:12 | 43.15192 | 10.59070 | 22944 ft | 442 kts | 198° |
| 2026-05-01 14:12 | 43.12269 | 10.57711 | 23374 ft | 446 kts | 198° |
| 2026-05-01 14:12 | 43.09317 | 10.56341 | 23803 ft | 449 kts | 198° |
| 2026-05-01 14:12 | 43.06345 | 10.54961 | 24230 ft | 452 kts | 198° |
| 2026-05-01 14:13 | 43.03361 | 10.53572 | 24652 ft | 454 kts | 199° |
| 2026-05-01 14:13 | 43.01372 | 10.52645 | 24924 ft | 456 kts | 199° |
| 2026-05-01 14:13 | 42.97376 | 10.50783 | 25477 ft | 460 kts | 199° |
| 2026-05-01 14:13 | 42.94338 | 10.49375 | 25887 ft | 462 kts | 199° |
| 2026-05-01 14:14 | 42.91285 | 10.47964 | 26291 ft | 464 kts | 199° |
| 2026-05-01 14:14 | 42.88218 | 10.46548 | 26668 ft | 466 kts | 199° |
| 2026-05-01 14:14 | 42.85139 | 10.45127 | 27048 ft | 468 kts | 199° |
| 2026-05-01 14:14 | 42.82050 | 10.43682 | 27411 ft | 470 kts | 202° |
| 2026-05-01 14:15 | 42.79105 | 10.41754 | 27783 ft | 469 kts | 214° |
| 2026-05-01 14:15 | 42.76480 | 10.39154 | 28161 ft | 466 kts | 225° |
| 2026-05-01 14:15 | 42.74261 | 10.35974 | 28514 ft | 462 kts | 237° |
| 2026-05-01 14:15 | 42.72518 | 10.32337 | 28891 ft | 456 kts | 248° |
| 2026-05-01 14:16 | 42.71285 | 10.28396 | 29251 ft | 451 kts | 258° |
| 2026-05-01 14:16 | 42.70525 | 10.24288 | 29610 ft | 447 kts | 263° |
| 2026-05-01 14:16 | 42.69840 | 10.20150 | 29953 ft | 449 kts | 263° |
| 2026-05-01 14:16 | 42.69147 | 10.16008 | 30285 ft | 450 kts | 263° |
| 2026-05-01 14:17 | 42.68445 | 10.11853 | 30612 ft | 451 kts | 263° |
| 2026-05-01 14:17 | 42.67740 | 10.07694 | 30908 ft | 452 kts | 262° |
| 2026-05-01 14:17 | 42.67027 | 10.03516 | 31193 ft | 454 kts | 262° |
| 2026-05-01 14:17 | 42.66318 | 9.99389 | 31475 ft | 455 kts | 262° |
| 2026-05-01 14:18 | 42.65592 | 9.95146 | 31791 ft | 455 kts | 262° |
| 2026-05-01 14:18 | 42.64886 | 9.91030 | 32219 ft | 453 kts | 262° |
| 2026-05-01 14:18 | 42.64173 | 9.86872 | 32630 ft | 450 kts | 262° |
| 2026-05-01 14:18 | 42.63695 | 9.84078 | 32886 ft | 449 kts | 262° |
| 2026-05-01 14:19 | 42.62759 | 9.78611 | 33384 ft | 448 kts | 262° |
| 2026-05-01 14:19 | 42.62052 | 9.74492 | 33758 ft | 446 kts | 262° |
| 2026-05-01 14:19 | 42.61348 | 9.70386 | 34131 ft | 445 kts | 262° |
| 2026-05-01 14:19 | 42.60644 | 9.66301 | 34496 ft | 443 kts | 262° |
| 2026-05-01 14:20 | 42.59938 | 9.62239 | 34848 ft | 442 kts | 262° |
| 2026-05-01 14:20 | 42.58349 | 9.54228 | 35291 ft | 443 kts | 254° |
| 2026-05-01 14:21 | 42.55360 | 9.46878 | 35302 ft | 451 kts | 236° |
| 2026-05-01 14:21 | 42.53145 | 9.43826 | 35304 ft | 458 kts | 223° |
| 2026-05-01 14:21 | 42.50502 | 9.41348 | 35305 ft | 463 kts | 217° |
| 2026-05-01 14:22 | 42.43293 | 9.35082 | 35294 ft | 462 kts | 217° |
| 2026-05-01 14:22 | 42.37901 | 9.30352 | 35291 ft | 461 kts | 217° |
| 2026-05-01 14:23 | 42.32524 | 9.25618 | 35289 ft | 461 kts | 217° |
| 2026-05-01 14:23 | 42.27144 | 9.20889 | 35281 ft | 461 kts | 217° |
| 2026-05-01 14:24 | 42.21792 | 9.16205 | 35282 ft | 460 kts | 217° |
| 2026-05-01 14:24 | 42.16413 | 9.11512 | 35264 ft | 459 kts | 217° |
| 2026-05-01 14:25 | 42.11047 | 9.06841 | 35262 ft | 458 kts | 217° |
| 2026-05-01 14:25 | 42.05685 | 9.02184 | 35259 ft | 458 kts | 217° |
| 2026-05-01 14:26 | 41.97685 | 8.95250 | 35267 ft | 456 kts | 218° |
| 2026-05-01 14:27 | 41.92352 | 8.90640 | 35276 ft | 455 kts | 218° |
| 2026-05-01 14:27 | 41.87034 | 8.86061 | 35278 ft | 453 kts | 218° |
| 2026-05-01 14:28 | 41.79214 | 8.79021 | 35265 ft | 445 kts | 226° |
| 2026-05-01 14:28 | 41.75318 | 8.72858 | 35259 ft | 431 kts | 244° |
| 2026-05-01 14:29 | 41.72535 | 8.65806 | 35262 ft | 428 kts | 248° |
| 2026-05-01 14:30 | 41.67019 | 8.51677 | 35264 ft | 428 kts | 247° |
| 2026-05-01 14:31 | 41.62893 | 8.41123 | 35248 ft | 427 kts | 247° |
| 2026-05-01 14:31 | 41.60140 | 8.34100 | 35242 ft | 426 kts | 247° |
| 2026-05-01 14:32 | 41.57375 | 8.27072 | 35237 ft | 426 kts | 247° |
| 2026-05-01 14:32 | 41.54622 | 8.20101 | 35236 ft | 426 kts | 247° |
| 2026-05-01 14:33 | 41.51856 | 8.13102 | 35236 ft | 426 kts | 247° |
| 2026-05-01 14:33 | 41.49083 | 8.06108 | 35234 ft | 426 kts | 247° |
| 2026-05-01 14:34 | 41.46298 | 7.99108 | 35233 ft | 426 kts | 247° |
| 2026-05-01 14:34 | 41.43535 | 7.92162 | 35236 ft | 426 kts | 246° |
| 2026-05-01 14:35 | 41.40750 | 7.85176 | 35239 ft | 426 kts | 246° |
| 2026-05-01 14:35 | 41.37957 | 7.78213 | 35241 ft | 426 kts | 246° |
| 2026-05-01 14:36 | 41.35172 | 7.71264 | 35241 ft | 425 kts | 246° |
| 2026-05-01 14:36 | 41.32400 | 7.64368 | 35238 ft | 424 kts | 246° |
| 2026-05-01 14:37 | 41.29613 | 7.57450 | 35233 ft | 424 kts | 246° |
| 2026-05-01 14:37 | 41.26828 | 7.50547 | 35231 ft | 423 kts | 246° |
| 2026-05-01 14:38 | 41.24043 | 7.43661 | 35228 ft | 423 kts | 245° |
| 2026-05-01 14:38 | 41.21257 | 7.36790 | 35226 ft | 422 kts | 245° |
| 2026-05-01 14:39 | 41.18462 | 7.29929 | 35228 ft | 422 kts | 245° |
| 2026-05-01 14:39 | 41.15669 | 7.23082 | 35230 ft | 422 kts | 245° |
| 2026-05-01 14:40 | 41.12878 | 7.16242 | 35231 ft | 421 kts | 245° |
| 2026-05-01 14:40 | 41.10109 | 7.09472 | 35231 ft | 420 kts | 245° |
| 2026-05-01 14:41 | 41.07311 | 7.02677 | 35223 ft | 419 kts | 245° |
| 2026-05-01 14:41 | 41.04517 | 6.95895 | 35224 ft | 419 kts | 245° |
| 2026-05-01 14:42 | 41.01731 | 6.89114 | 35222 ft | 419 kts | 245° |
| 2026-05-01 14:42 | 40.98942 | 6.82338 | 35222 ft | 419 kts | 244° |
| 2026-05-01 14:43 | 40.96141 | 6.75571 | 35223 ft | 419 kts | 244° |
| 2026-05-01 14:43 | 40.93459 | 6.68802 | 35226 ft | 416 kts | 251° |
| 2026-05-01 14:44 | 40.92287 | 6.61414 | 35225 ft | 409 kts | 270° |
| 2026-05-01 14:44 | 40.93181 | 6.50237 | 35222 ft | 408 kts | 278° |
| 2026-05-01 14:45 | 40.94273 | 6.39061 | 35222 ft | 408 kts | 278° |
| 2026-05-01 14:46 | 40.94995 | 6.31617 | 35223 ft | 408 kts | 278° |
| 2026-05-01 14:46 | 40.96073 | 6.20485 | 35225 ft | 408 kts | 278° |
| 2026-05-01 14:47 | 40.96780 | 6.13036 | 35224 ft | 408 kts | 278° |
| 2026-05-01 14:48 | 40.97837 | 6.01859 | 35226 ft | 408 kts | 277° |
| 2026-05-01 14:48 | 40.98880 | 5.90692 | 35220 ft | 410 kts | 277° |
| 2026-05-01 14:49 | 41.00265 | 5.75683 | 35225 ft | 411 kts | 277° |
| 2026-05-01 14:50 | 41.01646 | 5.60655 | 35225 ft | 411 kts | 277° |
| 2026-05-01 14:51 | 41.02661 | 5.49415 | 35224 ft | 411 kts | 277° |
| 2026-05-01 14:52 | 41.03673 | 5.38125 | 35225 ft | 411 kts | 276° |
| 2026-05-01 14:53 | 41.04653 | 5.26858 | 35223 ft | 412 kts | 276° |
| 2026-05-01 14:53 | 41.05301 | 5.19319 | 35224 ft | 412 kts | 276° |
| 2026-05-01 14:54 | 41.05952 | 5.11762 | 35225 ft | 412 kts | 276° |
| 2026-05-01 14:54 | 41.06606 | 5.04201 | 35226 ft | 412 kts | 276° |
| 2026-05-01 14:55 | 41.07252 | 4.96629 | 35224 ft | 413 kts | 276° |
| 2026-05-01 14:55 | 41.07895 | 4.89059 | 35222 ft | 413 kts | 276° |
| 2026-05-01 14:56 | 41.08526 | 4.81538 | 35222 ft | 413 kts | 276° |
| 2026-05-01 14:56 | 41.09152 | 4.73968 | 35219 ft | 413 kts | 275° |
| 2026-05-01 14:57 | 41.09775 | 4.66375 | 35215 ft | 414 kts | 275° |
| 2026-05-01 14:57 | 41.10709 | 4.54973 | 35213 ft | 414 kts | 275° |
| 2026-05-01 14:58 | 41.11326 | 4.47353 | 35217 ft | 415 kts | 275° |
| 2026-05-01 14:58 | 41.11932 | 4.39792 | 35218 ft | 415 kts | 275° |
| 2026-05-01 14:59 | 41.12531 | 4.32177 | 35221 ft | 415 kts | 275° |
| 2026-05-01 14:59 | 41.13125 | 4.24569 | 35223 ft | 415 kts | 275° |
| 2026-05-01 15:00 | 41.14020 | 4.13114 | 35223 ft | 415 kts | 275° |
| 2026-05-01 15:01 | 41.14609 | 4.05537 | 35222 ft | 415 kts | 275° |
| 2026-05-01 15:01 | 41.15196 | 3.97910 | 35220 ft | 415 kts | 275° |
| 2026-05-01 15:02 | 41.15768 | 3.90268 | 35216 ft | 416 kts | 274° |
| 2026-05-01 15:02 | 41.16339 | 3.82620 | 35214 ft | 417 kts | 274° |
| 2026-05-01 15:03 | 41.16912 | 3.74993 | 34903 ft | 418 kts | 274° |
| 2026-05-01 15:03 | 41.17198 | 3.71162 | 34479 ft | 415 kts | 274° |
| 2026-05-01 15:03 | 41.17479 | 3.67351 | 34024 ft | 413 kts | 274° |
| 2026-05-01 15:03 | 41.17756 | 3.63563 | 33574 ft | 410 kts | 274° |
| 2026-05-01 15:04 | 41.18029 | 3.59812 | 33123 ft | 407 kts | 274° |
| 2026-05-01 15:04 | 41.18298 | 3.56074 | 32671 ft | 404 kts | 274° |
| 2026-05-01 15:04 | 41.18564 | 3.52379 | 32217 ft | 401 kts | 274° |
| 2026-05-01 15:04 | 41.18828 | 3.48711 | 31772 ft | 398 kts | 274° |
| 2026-05-01 15:05 | 41.19088 | 3.45068 | 31330 ft | 395 kts | 274° |
| 2026-05-01 15:05 | 41.19344 | 3.41460 | 30880 ft | 391 kts | 274° |
| 2026-05-01 15:05 | 41.19594 | 3.37916 | 30463 ft | 389 kts | 274° |
| 2026-05-01 15:05 | 41.19846 | 3.34353 | 30036 ft | 386 kts | 275° |
| 2026-05-01 15:06 | 41.20094 | 3.30812 | 29617 ft | 383 kts | 275° |
| 2026-05-01 15:06 | 41.20340 | 3.27303 | 29203 ft | 380 kts | 275° |
| 2026-05-01 15:06 | 41.20582 | 3.23817 | 28799 ft | 378 kts | 275° |
| 2026-05-01 15:06 | 41.20822 | 3.20352 | 28391 ft | 376 kts | 275° |
| 2026-05-01 15:07 | 41.21060 | 3.16909 | 27985 ft | 374 kts | 275° |
| 2026-05-01 15:07 | 41.21336 | 3.13480 | 27589 ft | 371 kts | 276° |
| 2026-05-01 15:07 | 41.21655 | 3.10085 | 27205 ft | 369 kts | 277° |
| 2026-05-01 15:07 | 41.21991 | 3.06718 | 26823 ft | 366 kts | 277° |
| 2026-05-01 15:08 | 41.22327 | 3.03381 | 26442 ft | 363 kts | 277° |
| 2026-05-01 15:08 | 41.22657 | 3.00058 | 26064 ft | 360 kts | 277° |
| 2026-05-01 15:08 | 41.22975 | 2.96812 | 25692 ft | 357 kts | 277° |
| 2026-05-01 15:08 | 41.23288 | 2.93539 | 25303 ft | 360 kts | 277° |
| 2026-05-01 15:09 | 41.23600 | 2.90205 | 24907 ft | 365 kts | 277° |
| 2026-05-01 15:09 | 41.23909 | 2.86861 | 24495 ft | 365 kts | 277° |
| 2026-05-01 15:09 | 41.24216 | 2.83514 | 24088 ft | 363 kts | 277° |
| 2026-05-01 15:09 | 41.24419 | 2.81304 | 23820 ft | 362 kts | 277° |
| 2026-05-01 15:10 | 41.24824 | 2.76868 | 23252 ft | 360 kts | 276° |
| 2026-05-01 15:10 | 41.25324 | 2.71397 | 22539 ft | 356 kts | 276° |
| 2026-05-01 15:10 | 41.25627 | 2.68139 | 22117 ft | 354 kts | 277° |
| 2026-05-01 15:11 | 41.25926 | 2.64900 | 21695 ft | 352 kts | 276° |
| 2026-05-01 15:11 | 41.26511 | 2.58466 | 20847 ft | 349 kts | 276° |
| 2026-05-01 15:11 | 41.26798 | 2.55273 | 20424 ft | 347 kts | 276° |
| 2026-05-01 15:12 | 41.27077 | 2.52136 | 20005 ft | 345 kts | 276° |
| 2026-05-01 15:12 | 41.27639 | 2.45808 | 19166 ft | 342 kts | 276° |
| 2026-05-01 15:12 | 41.27919 | 2.42675 | 18751 ft | 340 kts | 276° |
| 2026-05-01 15:13 | 41.28754 | 2.33368 | 17513 ft | 335 kts | 276° |
| 2026-05-01 15:14 | 41.29286 | 2.27288 | 16702 ft | 331 kts | 276° |
| 2026-05-01 15:14 | 41.29549 | 2.24251 | 16296 ft | 330 kts | 276° |
| 2026-05-01 15:14 | 41.30070 | 2.18224 | 15494 ft | 326 kts | 276° |
| 2026-05-01 15:15 | 41.30580 | 2.12263 | 14701 ft | 323 kts | 276° |
| 2026-05-01 15:15 | 41.31042 | 2.06355 | 13916 ft | 319 kts | 274° |
| 2026-05-01 15:16 | 41.31411 | 2.00501 | 13258 ft | 315 kts | 274° |
| 2026-05-01 15:16 | 41.31769 | 1.94664 | 12638 ft | 323 kts | 274° |
| 2026-05-01 15:17 | 41.32135 | 1.88869 | 12177 ft | 307 kts | 274° |
| 2026-05-01 15:18 | 41.32663 | 1.80655 | 10775 ft | 293 kts | 274° |
| 2026-05-01 15:18 | 41.32832 | 1.77958 | 10215 ft | 292 kts | 274° |
| 2026-05-01 15:19 | 41.33335 | 1.69893 | 9104 ft | 286 kts | 274° |
| 2026-05-01 15:19 | 41.33654 | 1.64693 | 8353 ft | 279 kts | 274° |
| 2026-05-01 15:19 | 41.33811 | 1.62126 | 8002 ft | 277 kts | 274° |
| 2026-05-01 15:20 | 41.33826 | 1.57055 | 7320 ft | 273 kts | 253° |
| 2026-05-01 15:20 | 41.33006 | 1.54807 | 6980 ft | 270 kts | 231° |
| 2026-05-01 15:20 | 41.31670 | 1.53157 | 6638 ft | 263 kts | 210° |
| 2026-05-01 15:21 | 41.30055 | 1.52077 | 6307 ft | 257 kts | 203° |
| 2026-05-01 15:21 | 41.28453 | 1.51063 | 5884 ft | 254 kts | 204° |
| 2026-05-01 15:21 | 41.26861 | 1.50050 | 5433 ft | 252 kts | 204° |
| 2026-05-01 15:21 | 41.25300 | 1.49046 | 5077 ft | 246 kts | 206° |
| 2026-05-01 15:22 | 41.23120 | 1.45724 | 4429 ft | 242 kts | 248° |
| 2026-05-01 15:22 | 41.22528 | 1.43640 | 4172 ft | 241 kts | 248° |
| 2026-05-01 15:22 | 41.21932 | 1.41578 | 3867 ft | 237 kts | 248° |
| 2026-05-01 15:23 | 41.21352 | 1.39568 | 3560 ft | 228 kts | 248° |
| 2026-05-01 15:23 | 41.20793 | 1.37629 | 3253 ft | 221 kts | 248° |
| 2026-05-01 15:23 | 41.20261 | 1.35784 | 2984 ft | 213 kts | 248° |
| 2026-05-01 15:23 | 41.19742 | 1.33985 | 2744 ft | 205 kts | 247° |
| 2026-05-01 15:24 | 41.19232 | 1.32223 | 2432 ft | 202 kts | 247° |
| 2026-05-01 15:24 | 41.18739 | 1.30516 | 2171 ft | 193 kts | 247° |
| 2026-05-01 15:24 | 41.18268 | 1.28886 | 1911 ft | 184 kts | 246° |
| 2026-05-01 15:24 | 41.17821 | 1.27341 | 1683 ft | 173 kts | 246° |
| 2026-05-01 15:25 | 41.17403 | 1.25897 | 1456 ft | 163 kts | 246° |
| 2026-05-01 15:25 | 41.17002 | 1.24519 | 1250 ft | 157 kts | 245° |
| 2026-05-01 15:25 | 41.16614 | 1.23180 | 1043 ft | 154 kts | 246° |
| 2026-05-01 15:25 | 41.16231 | 1.21859 | 831 ft | 153 kts | 246° |
| 2026-05-01 15:26 | 41.15851 | 1.20548 | 635 ft | 151 kts | 246° |
| 2026-05-01 15:26 | 41.15473 | 1.19248 | 433 ft | 149 kts | 246° |
| 2026-05-01 15:26 | 41.15101 | 1.17968 | 255 ft | 146 kts | 247° |
| 2026-05-01 15:26 | 41.14790 | 1.16903 | 242 ft | 90 kts | 249° |
| 2026-05-01 15:27 | 41.14670 | 1.16487 | 242 ft | 12 kts | 248° |
| 2026-05-01 15:27 | 41.14666 | 1.16475 | 242 ft | 2 kts | 248° |
| 2026-05-01 15:27 | 41.14665 | 1.16470 | 242 ft | 0 kts | 248° |
| 2026-05-01 15:29 | 41.14794 | 1.16004 | 242 ft | 0 kts | 339° |